Time,TemperatureF,DewpointF,PressureIn,WindDirection,WindDirectionDegrees,WindSpeedMPH,WindSpeedGustMPH,Humidity,HourlyPrecipIn,Conditions,Clouds,dailyrainin,SoftwareType,DateUTC
2013-04-04 00:07:00,51.1,26.4,29.98,NNW,337,3.8,-999.0,38,-99.99,,,0.00,Acu-Link.com,2013-04-04 06:07:00,
2013-04-04 00:22:00,50.5,27.1,29.98,NNE,22,0.0,-999.0,40,-99.99,,,0.00,Acu-Link.com,2013-04-04 06:22:00,
2013-04-04 00:37:00,48.7,25.5,29.98,SSE,157,3.8,-999.0,40,-99.99,,,0.00,Acu-Link.com,2013-04-04 06:37:00,
2013-04-04 00:52:00,47.7,25.7,29.99,NW,315,1.6,-999.0,42,-99.99,,,0.00,Acu-Link.com,2013-04-04 06:52:00,
2013-04-04 01:07:00,47.8,26.4,29.99,WNW,292,3.1,-999.0,43,-99.99,,,0.00,Acu-Link.com,2013-04-04 07:07:00,
2013-04-04 01:23:00,48.6,26.5,29.99,NW,315,3.1,-999.0,42,-99.99,,,0.00,Acu-Link.com,2013-04-04 07:23:00,
2013-04-04 01:38:00,48.7,26.1,30.00,NNW,337,2.7,-999.0,41,-99.99,,,0.00,Acu-Link.com,2013-04-04 07:38:00,
2013-04-04 01:53:00,48.2,26.2,29.99,WNW,292,2.7,-999.0,42,-99.99,,,0.00,Acu-Link.com,2013-04-04 07:53:00,
2013-04-04 02:09:00,47.7,25.7,29.99,West,270,1.6,-999.0,42,-99.99,,,0.00,Acu-Link.com,2013-04-04 08:09:00,
2013-04-04 02:24:00,47.1,25.8,29.99,NNW,337,1.6,-999.0,43,-99.99,,,0.00,Acu-Link.com,2013-04-04 08:24:00,
2013-04-04 02:39:00,46.0,25.9,29.99,NW,315,1.6,-999.0,45,-99.99,,,0.00,Acu-Link.com,2013-04-04 08:39:00,
2013-04-04 03:09:00,45.0,26.0,30.00,NW,315,2.7,-999.0,47,-99.99,,,0.00,Acu-Link.com,2013-04-04 09:09:00,
2013-04-04 03:25:00,44.4,26.5,30.00,NW,315,1.6,-999.0,49,-99.99,,,0.00,Acu-Link.com,2013-04-04 09:25:00,
2013-04-04 03:40:00,43.9,26.0,30.00,WNW,292,2.7,-999.0,49,-99.99,,,0.00,Acu-Link.com,2013-04-04 09:40:00,
2013-04-04 04:10:00,42.8,25.9,30.01,WNW,292,0.0,-999.0,51,-99.99,,,0.00,Acu-Link.com,2013-04-04 10:10:00,
2013-04-04 04:25:00,41.9,25.6,30.01,ESE,112,0.0,-999.0,52,-99.99,,,0.00,Acu-Link.com,2013-04-04 10:25:00,
2013-04-04 04:41:00,41.0,26.5,30.01,ESE,112,0.0,-999.0,56,-99.99,,,0.00,Acu-Link.com,2013-04-04 10:41:00,
2013-04-04 04:56:00,40.8,26.8,30.02,East,90,2.2,-999.0,57,-99.99,,,0.00,Acu-Link.com,2013-04-04 10:56:00,
2013-04-04 05:11:00,40.5,28.1,30.02,East,90,0.0,-999.0,61,-99.99,,,0.00,Acu-Link.com,2013-04-04 11:11:00,
2013-04-04 05:26:00,40.1,29.3,30.03,NNE,22,0.0,-999.0,65,-99.99,,,0.00,Acu-Link.com,2013-04-04 11:26:00,
2013-04-04 05:42:00,38.8,27.0,30.04,East,90,0.0,-999.0,62,-99.99,,,0.00,Acu-Link.com,2013-04-04 11:42:00,
2013-04-04 05:57:00,38.5,27.0,30.04,NNW,337,0.0,-999.0,63,-99.99,,,0.00,Acu-Link.com,2013-04-04 11:57:00,
2013-04-04 06:12:00,38.7,27.2,30.04,NNE,22,2.2,-999.0,63,-99.99,,,0.00,Acu-Link.com,2013-04-04 12:12:00,
2013-04-04 06:27:00,37.9,26.9,30.04,East,90,1.6,-999.0,64,-99.99,,,0.00,Acu-Link.com,2013-04-04 12:27:00,
2013-04-04 06:42:00,38.7,28.7,30.05,NE,45,2.2,-999.0,67,-99.99,,,0.00,Acu-Link.com,2013-04-04 12:42:00,
2013-04-04 06:58:00,38.5,28.1,30.05,NE,45,4.3,-999.0,66,-99.99,,,0.00,Acu-Link.com,2013-04-04 12:58:00,
2013-04-04 07:13:00,40.1,28.5,30.06,NNE,22,3.1,-999.0,63,-99.99,,,0.00,Acu-Link.com,2013-04-04 13:13:00,
2013-04-04 07:28:00,42.8,28.6,30.07,NE,45,3.1,-999.0,57,-99.99,,,0.00,Acu-Link.com,2013-04-04 13:28:00,
2013-04-04 07:43:00,45.5,29.4,30.06,East,90,2.7,-999.0,53,-99.99,,,0.00,Acu-Link.com,2013-04-04 13:43:00,
2013-04-04 07:58:00,47.7,28.4,30.08,North,0,1.6,-999.0,47,-99.99,,,0.00,Acu-Link.com,2013-04-04 13:58:00,
2013-04-04 08:14:00,52.3,29.3,30.08,NE,45,2.2,-999.0,41,-99.99,,,0.00,Acu-Link.com,2013-04-04 14:14:00,
2013-04-04 08:29:00,55.6,29.7,30.08,North,0,1.6,-999.0,37,-99.99,,,0.00,Acu-Link.com,2013-04-04 14:29:00,
2013-04-04 08:44:00,56.1,29.5,30.09,NNW,337,4.3,-999.0,36,-99.99,,,0.00,Acu-Link.com,2013-04-04 14:44:00,
2013-04-04 08:59:00,53.4,29.1,30.09,ENE,67,5.8,-999.0,39,-99.99,,,0.00,Acu-Link.com,2013-04-04 14:59:00,
2013-04-04 09:14:00,51.6,29.3,30.09,ENE,67,4.7,-999.0,42,-99.99,,,0.00,Acu-Link.com,2013-04-04 15:14:00,
2013-04-04 09:30:00,53.6,30.5,30.09,NE,45,4.7,-999.0,41,-99.99,,,0.00,Acu-Link.com,2013-04-04 15:30:00,
2013-04-04 09:45:00,54.3,30.5,30.09,NNE,22,0.0,-999.0,40,-99.99,,,0.00,Acu-Link.com,2013-04-04 15:45:00,
2013-04-04 10:00:00,56.1,30.9,30.09,West,270,2.2,-999.0,38,-99.99,,,0.00,Acu-Link.com,2013-04-04 16:00:00,
2013-04-04 10:15:00,58.8,31.2,30.09,NE,45,6.3,-999.0,35,-99.99,,,0.00,Acu-Link.com,2013-04-04 16:15:00,
2013-04-04 10:31:00,59.5,29.7,30.09,NE,45,5.1,-999.0,32,-99.99,,,0.00,Acu-Link.com,2013-04-04 16:31:00,
2013-04-04 11:01:00,61.5,29.0,30.09,WNW,292,3.8,-999.0,29,-99.99,,,0.00,Acu-Link.com,2013-04-04 17:01:00,
2013-04-04 11:16:00,63.5,28.9,30.08,ENE,67,4.3,-999.0,27,-99.99,,,0.00,Acu-Link.com,2013-04-04 17:16:00,
2013-04-04 11:47:00,64.9,26.3,30.07,East,90,2.7,-999.0,23,-99.99,,,0.00,Acu-Link.com,2013-04-04 17:47:00,
2013-04-04 12:02:00,67.1,27.0,30.07,West,270,3.1,-999.0,22,-99.99,,,0.00,Acu-Link.com,2013-04-04 18:02:00,
2013-04-04 12:17:00,69.4,27.8,30.06,SW,225,2.7,-999.0,21,-99.99,,,0.00,Acu-Link.com,2013-04-04 18:17:00,
2013-04-04 12:32:00,69.8,25.7,30.06,South,180,3.8,-999.0,19,-99.99,,,0.00,Acu-Link.com,2013-04-04 18:32:00,
2013-04-04 12:47:00,68.9,24.9,30.04,West,270,2.2,-999.0,19,-99.99,,,0.00,Acu-Link.com,2013-04-04 18:47:00,
2013-04-04 13:03:00,69.4,21.3,30.04,West,270,2.7,-999.0,16,-99.99,,,0.00,Acu-Link.com,2013-04-04 19:03:00,
2013-04-04 13:18:00,72.0,24.8,30.02,West,270,1.6,-999.0,17,-99.99,,,0.00,Acu-Link.com,2013-04-04 19:18:00,
2013-04-04 13:33:00,71.1,22.6,30.01,SE,135,2.7,-999.0,16,-99.99,,,0.00,Acu-Link.com,2013-04-04 19:33:00,
2013-04-04 14:04:00,72.9,22.5,29.99,SSW,202,2.2,-999.0,15,-99.99,,,0.00,Acu-Link.com,2013-04-04 20:04:00,
2013-04-04 14:19:00,73.9,21.7,29.99,South,180,3.8,-999.0,14,-99.99,,,0.00,Acu-Link.com,2013-04-04 20:19:00,
2013-04-04 14:34:00,73.2,19.4,29.98,West,270,3.8,-999.0,13,-99.99,,,0.00,Acu-Link.com,2013-04-04 20:34:00,
2013-04-04 14:49:00,73.9,18.1,29.97,East,90,3.8,-999.0,12,-99.99,,,0.00,Acu-Link.com,2013-04-04 20:49:00,
2013-04-04 15:04:00,73.9,18.1,29.96,SSE,157,5.1,-999.0,12,-99.99,,,0.00,Acu-Link.com,2013-04-04 21:04:00,
2013-04-04 15:20:00,74.7,16.7,29.96,SW,225,2.7,-999.0,11,-99.99,,,0.00,Acu-Link.com,2013-04-04 21:20:00,
2013-04-04 15:35:00,74.8,16.8,29.95,SW,225,5.1,-999.0,11,-99.99,,,0.00,Acu-Link.com,2013-04-04 21:35:00,
2013-04-04 15:50:00,75.6,17.4,29.94,East,90,3.8,-999.0,11,-99.99,,,0.00,Acu-Link.com,2013-04-04 21:50:00,
2013-04-04 16:05:00,75.4,17.2,29.93,South,180,6.3,-999.0,11,-99.99,,,0.00,Acu-Link.com,2013-04-04 22:05:00,
2013-04-04 16:20:00,74.7,16.7,29.94,WSW,247,2.7,-999.0,11,-99.99,,,0.00,Acu-Link.com,2013-04-04 22:20:00,
2013-04-04 16:36:00,75.7,17.5,29.94,SSW,202,6.3,-999.0,11,-99.99,,,0.00,Acu-Link.com,2013-04-04 22:36:00,
2013-04-04 16:51:00,74.7,16.7,29.93,East,90,4.3,-999.0,11,-99.99,,,0.00,Acu-Link.com,2013-04-04 22:51:00,
2013-04-04 17:06:00,75.9,17.6,29.92,NE,45,2.7,-999.0,11,-99.99,,,0.00,Acu-Link.com,2013-04-04 23:06:00,
2013-04-04 17:21:00,76.1,17.8,29.92,SSW,202,3.1,-999.0,11,-99.99,,,0.00,Acu-Link.com,2013-04-04 23:21:00,
2013-04-04 17:36:00,75.7,17.5,29.92,West,270,4.3,-999.0,11,-99.99,,,0.00,Acu-Link.com,2013-04-04 23:36:00,
2013-04-04 17:52:00,76.5,18.1,29.92,South,180,3.1,-999.0,11,-99.99,,,0.00,Acu-Link.com,2013-04-04 23:52:00,
2013-04-04 18:07:00,79.0,20.0,29.92,WNW,292,2.7,-999.0,11,-99.99,,,0.00,Acu-Link.com,2013-04-05 00:07:00,
2013-04-04 18:22:00,78.4,17.4,29.91,South,180,2.7,-999.0,10,-99.99,,,0.00,Acu-Link.com,2013-04-05 00:22:00,
2013-04-04 18:37:00,75.7,17.5,29.92,SSE,157,3.1,-999.0,11,-99.99,,,0.00,Acu-Link.com,2013-04-05 00:37:00,
2013-04-04 18:52:00,72.0,14.6,29.91,South,180,3.8,-999.0,11,-99.99,,,0.00,Acu-Link.com,2013-04-05 00:52:00,
2013-04-04 19:08:00,70.7,15.6,29.91,SE,135,2.2,-999.0,12,-99.99,,,0.00,Acu-Link.com,2013-04-05 01:08:00,
2013-04-04 19:23:00,69.3,14.5,29.91,South,180,2.7,-999.0,12,-99.99,,,0.00,Acu-Link.com,2013-04-05 01:23:00,
2013-04-04 19:38:00,68.4,13.8,29.91,SSW,202,3.8,-999.0,12,-99.99,,,0.00,Acu-Link.com,2013-04-05 01:38:00,
2013-04-04 20:24:00,65.5,15.0,29.92,SW,225,3.8,-999.0,14,-99.99,,,0.00,Acu-Link.com,2013-04-05 02:24:00,
2013-04-04 20:39:00,65.3,14.9,29.93,SW,225,2.7,-999.0,14,-99.99,,,0.00,Acu-Link.com,2013-04-05 02:39:00,
2013-04-04 20:54:00,64.2,15.6,29.93,SSW,202,0.0,-999.0,15,-99.99,,,0.00,Acu-Link.com,2013-04-05 02:54:00,
2013-04-04 21:09:00,63.5,15.0,29.93,SSW,202,0.0,-999.0,15,-99.99,,,0.00,Acu-Link.com,2013-04-05 03:09:00,
2013-04-04 21:25:00,63.0,16.1,29.93,SSW,202,0.0,-999.0,16,-99.99,,,0.00,Acu-Link.com,2013-04-05 03:25:00,
2013-04-04 21:40:00,62.4,15.7,29.95,SW,225,1.1,-999.0,16,-99.99,,,0.00,Acu-Link.com,2013-04-05 03:40:00,
2013-04-04 21:55:00,61.0,15.9,29.95,SW,225,0.0,-999.0,17,-99.99,,,0.00,Acu-Link.com,2013-04-05 03:55:00,
2013-04-04 22:10:00,60.1,15.1,29.95,SSW,202,0.0,-999.0,17,-99.99,,,0.00,Acu-Link.com,2013-04-05 04:10:00,
2013-04-04 22:25:00,58.1,14.8,29.95,West,270,0.0,-999.0,18,-99.99,,,0.00,Acu-Link.com,2013-04-05 04:25:00,
2013-04-04 22:41:00,57.7,15.8,29.96,WNW,292,0.0,-999.0,19,-99.99,,,0.00,Acu-Link.com,2013-04-05 04:41:00,
2013-04-04 23:11:00,58.1,16.1,29.95,West,270,1.6,-999.0,19,-99.99,,,0.00,Acu-Link.com,2013-04-05 05:11:00,
2013-04-04 23:26:00,57.6,14.4,29.95,West,270,1.6,-999.0,18,-99.99,,,0.00,Acu-Link.com,2013-04-05 05:26:00,
2013-04-04 23:41:00,57.0,15.2,29.95,West,270,0.0,-999.0,19,-99.99,,,0.00,Acu-Link.com,2013-04-05 05:41:00,
2013-04-04 23:57:00,55.9,14.3,29.95,West,270,0.0,-999.0,19,-99.99,,,0.00,Acu-Link.com,2013-04-05 05:57:00,